sensor_id;sensor_type;location;lat;lon;timestamp;temperature;humidity
67192;HTU21D;54120;53.504;49.426;2022-07-06T00:02:06;10.73;86.39
67192;HTU21D;54120;53.504;49.426;2022-07-06T00:04:33;10.72;86.89
67192;HTU21D;54120;53.504;49.426;2022-07-06T00:06:59;10.71;86.85
67192;HTU21D;54120;53.504;49.426;2022-07-06T00:09:25;10.71;86.70
67192;HTU21D;54120;53.504;49.426;2022-07-06T00:11:51;10.66;86.99
67192;HTU21D;54120;53.504;49.426;2022-07-06T00:14:17;10.68;86.96
67192;HTU21D;54120;53.504;49.426;2022-07-06T00:16:43;10.70;87.21
67192;HTU21D;54120;53.504;49.426;2022-07-06T00:19:09;10.73;87.13
67192;HTU21D;54120;53.504;49.426;2022-07-06T00:21:36;10.72;87.22
67192;HTU21D;54120;53.504;49.426;2022-07-06T00:24:02;10.69;86.98
67192;HTU21D;54120;53.504;49.426;2022-07-06T00:26:28;10.73;87.01
67192;HTU21D;54120;53.504;49.426;2022-07-06T00:28:54;10.75;86.86
67192;HTU21D;54120;53.504;49.426;2022-07-06T00:31:20;10.77;86.80
67192;HTU21D;54120;53.504;49.426;2022-07-06T00:33:47;10.80;86.58
67192;HTU21D;54120;53.504;49.426;2022-07-06T00:36:13;10.82;86.80
67192;HTU21D;54120;53.504;49.426;2022-07-06T00:38:39;10.84;86.74
67192;HTU21D;54120;53.504;49.426;2022-07-06T00:41:05;10.90;87.11
67192;HTU21D;54120;53.504;49.426;2022-07-06T00:43:54;11.15;87.54
67192;HTU21D;54120;53.504;49.426;2022-07-06T00:46:28;11.30;85.63
67192;HTU21D;54120;53.504;49.426;2022-07-06T00:48:54;11.34;84.58
67192;HTU21D;54120;53.504;49.426;2022-07-06T00:51:22;12.07;81.49
67192;HTU21D;54120;53.504;49.426;2022-07-06T00:53:50;12.72;83.32
67192;HTU21D;54120;53.504;49.426;2022-07-06T00:56:18;12.88;78.08
67192;HTU21D;54120;53.504;49.426;2022-07-06T00:58:44;13.78;74.55
67192;HTU21D;54120;53.504;49.426;2022-07-06T01:01:11;15.71;73.56
67192;HTU21D;54120;53.504;49.426;2022-07-06T01:03:37;17.70;61.80
67192;HTU21D;54120;53.504;49.426;2022-07-06T01:06:03;19.17;57.04
67192;HTU21D;54120;53.504;49.426;2022-07-06T01:08:29;20.28;51.27
67192;HTU21D;54120;53.504;49.426;2022-07-06T01:10:56;20.91;50.92
67192;HTU21D;54120;53.504;49.426;2022-07-06T01:13:22;21.58;47.87
67192;HTU21D;54120;53.504;49.426;2022-07-06T01:15:48;22.11;47.59
67192;HTU21D;54120;53.504;49.426;2022-07-06T01:18:14;22.61;47.63
67192;HTU21D;54120;53.504;49.426;2022-07-06T01:20:41;23.01;47.38
67192;HTU21D;54120;53.504;49.426;2022-07-06T01:23:07;23.43;43.55
67192;HTU21D;54120;53.504;49.426;2022-07-06T01:25:33;23.88;44.51
67192;HTU21D;54120;53.504;49.426;2022-07-06T01:27:59;23.40;46.27
67192;HTU21D;54120;53.504;49.426;2022-07-06T01:30:25;23.61;47.08
67192;HTU21D;54120;53.504;49.426;2022-07-06T01:32:52;23.52;44.80
67192;HTU21D;54120;53.504;49.426;2022-07-06T01:35:18;23.36;45.40
67192;HTU21D;54120;53.504;49.426;2022-07-06T01:37:45;20.99;53.28
67192;HTU21D;54120;53.504;49.426;2022-07-06T01:40:11;19.08;61.59
67192;HTU21D;54120;53.504;49.426;2022-07-06T01:42:38;18.28;62.02
67192;HTU21D;54120;53.504;49.426;2022-07-06T01:45:05;17.46;68.63
67192;HTU21D;54120;53.504;49.426;2022-07-06T01:47:32;17.31;67.04
67192;HTU21D;54120;53.504;49.426;2022-07-06T01:50:04;17.66;65.75
67192;HTU21D;54120;53.504;49.426;2022-07-06T01:52:30;17.45;67.33
67192;HTU21D;54120;53.504;49.426;2022-07-06T01:54:57;17.17;70.01
67192;HTU21D;54120;53.504;49.426;2022-07-06T01:57:23;17.24;68.58
67192;HTU21D;54120;53.504;49.426;2022-07-06T01:59:49;17.51;68.33
67192;HTU21D;54120;53.504;49.426;2022-07-06T02:02:15;17.26;68.62
67192;HTU21D;54120;53.504;49.426;2022-07-06T02:04:43;17.38;67.52
67192;HTU21D;54120;53.504;49.426;2022-07-06T02:07:09;19.41;62.53
67192;HTU21D;54120;53.504;49.426;2022-07-06T02:09:35;20.80;56.72
67192;HTU21D;54120;53.504;49.426;2022-07-06T02:12:01;23.52;48.92
67192;HTU21D;54120;53.504;49.426;2022-07-06T02:14:27;26.32;42.01
67192;HTU21D;54120;53.504;49.426;2022-07-06T02:16:53;27.49;39.00
67192;HTU21D;54120;53.504;49.426;2022-07-06T02:19:20;27.78;39.56
67192;HTU21D;54120;53.504;49.426;2022-07-06T02:21:46;28.19;38.91
67192;HTU21D;54120;53.504;49.426;2022-07-06T02:24:12;28.91;37.26
67192;HTU21D;54120;53.504;49.426;2022-07-06T02:26:38;29.35;36.21
67192;HTU21D;54120;53.504;49.426;2022-07-06T02:29:04;29.72;35.76
67192;HTU21D;54120;53.504;49.426;2022-07-06T02:31:30;29.66;35.59
67192;HTU21D;54120;53.504;49.426;2022-07-06T02:33:56;30.66;33.78
67192;HTU21D;54120;53.504;49.426;2022-07-06T02:36:23;30.89;33.23
67192;HTU21D;54120;53.504;49.426;2022-07-06T02:38:49;31.04;32.76
67192;HTU21D;54120;53.504;49.426;2022-07-06T02:41:15;31.27;32.60
67192;HTU21D;54120;53.504;49.426;2022-07-06T02:43:41;31.63;31.85
67192;HTU21D;54120;53.504;49.426;2022-07-06T02:46:07;32.42;29.83
67192;HTU21D;54120;53.504;49.426;2022-07-06T02:48:34;32.52;29.71
67192;HTU21D;54120;53.504;49.426;2022-07-06T02:51:00;32.14;30.47
67192;HTU21D;54120;53.504;49.426;2022-07-06T02:53:26;32.73;29.56
67192;HTU21D;54120;53.504;49.426;2022-07-06T02:55:52;33.50;27.78
67192;HTU21D;54120;53.504;49.426;2022-07-06T02:58:18;33.33;28.07
67192;HTU21D;54120;53.504;49.426;2022-07-06T03:00:45;32.68;29.48
67192;HTU21D;54120;53.504;49.426;2022-07-06T03:03:11;33.02;28.57
67192;HTU21D;54120;53.504;49.426;2022-07-06T03:05:37;32.47;28.90
67192;HTU21D;54120;53.504;49.426;2022-07-06T03:08:03;31.46;31.18
67192;HTU21D;54120;53.504;49.426;2022-07-06T03:10:29;32.68;28.95
67192;HTU21D;54120;53.504;49.426;2022-07-06T03:12:56;33.25;27.62
67192;HTU21D;54120;53.504;49.426;2022-07-06T03:15:22;33.31;27.55
67192;HTU21D;54120;53.504;49.426;2022-07-06T03:17:48;33.50;26.84
67192;HTU21D;54120;53.504;49.426;2022-07-06T03:20:14;33.33;26.84
67192;HTU21D;54120;53.504;49.426;2022-07-06T03:22:40;33.11;27.12
67192;HTU21D;54120;53.504;49.426;2022-07-06T03:25:07;33.58;26.84
67192;HTU21D;54120;53.504;49.426;2022-07-06T03:27:33;34.22;26.01
67192;HTU21D;54120;53.504;49.426;2022-07-06T03:30:02;34.52;25.41
67192;HTU21D;54120;53.504;49.426;2022-07-06T03:32:29;34.55;24.87
67192;HTU21D;54120;53.504;49.426;2022-07-06T03:34:57;32.44;28.17
67192;HTU21D;54120;53.504;49.426;2022-07-06T03:37:23;32.44;27.60
67192;HTU21D;54120;53.504;49.426;2022-07-06T03:39:49;32.69;28.26
67192;HTU21D;54120;53.504;49.426;2022-07-06T03:42:16;33.38;26.91
67192;HTU21D;54120;53.504;49.426;2022-07-06T03:44:42;34.74;24.11
67192;HTU21D;54120;53.504;49.426;2022-07-06T03:47:08;35.37;23.39
67192;HTU21D;54120;53.504;49.426;2022-07-06T03:49:34;35.13;23.34
67192;HTU21D;54120;53.504;49.426;2022-07-06T03:52:00;34.10;25.06
67192;HTU21D;54120;53.504;49.426;2022-07-06T03:54:26;34.88;23.25
67192;HTU21D;54120;53.504;49.426;2022-07-06T03:56:52;34.79;23.43
67192;HTU21D;54120;53.504;49.426;2022-07-06T03:59:19;33.77;24.65
67192;HTU21D;54120;53.504;49.426;2022-07-06T04:01:45;33.22;25.68
67192;HTU21D;54120;53.504;49.426;2022-07-06T04:04:11;33.06;26.08
67192;HTU21D;54120;53.504;49.426;2022-07-06T04:06:37;34.04;24.49
67192;HTU21D;54120;53.504;49.426;2022-07-06T04:09:04;34.85;23.21
67192;HTU21D;54120;53.504;49.426;2022-07-06T04:11:30;34.71;23.21
67192;HTU21D;54120;53.504;49.426;2022-07-06T04:13:56;34.11;23.75
67192;HTU21D;54120;53.504;49.426;2022-07-06T04:16:22;33.46;24.71
67192;HTU21D;54120;53.504;49.426;2022-07-06T04:18:48;33.11;25.16
67192;HTU21D;54120;53.504;49.426;2022-07-06T04:21:15;33.90;24.12
67192;HTU21D;54120;53.504;49.426;2022-07-06T04:23:41;33.76;24.90
67192;HTU21D;54120;53.504;49.426;2022-07-06T04:26:07;34.79;22.90
67192;HTU21D;54120;53.504;49.426;2022-07-06T04:28:33;36.16;21.26
67192;HTU21D;54120;53.504;49.426;2022-07-06T04:30:59;36.84;20.78
67192;HTU21D;54120;53.504;49.426;2022-07-06T04:33:25;36.56;20.53
67192;HTU21D;54120;53.504;49.426;2022-07-06T04:35:51;37.23;19.63
67192;HTU21D;54120;53.504;49.426;2022-07-06T04:38:18;37.57;19.20
67192;HTU21D;54120;53.504;49.426;2022-07-06T04:40:44;36.18;21.50
67192;HTU21D;54120;53.504;49.426;2022-07-06T04:43:12;36.86;20.84
67192;HTU21D;54120;53.504;49.426;2022-07-06T04:45:39;37.78;19.51
67192;HTU21D;54120;53.504;49.426;2022-07-06T04:48:05;37.52;19.76
67192;HTU21D;54120;53.504;49.426;2022-07-06T04:50:34;36.40;20.72
67192;HTU21D;54120;53.504;49.426;2022-07-06T04:53:00;36.40;20.75
67192;HTU21D;54120;53.504;49.426;2022-07-06T04:55:26;35.55;22.47
67192;HTU21D;54120;53.504;49.426;2022-07-06T04:57:52;34.86;23.14
67192;HTU21D;54120;53.504;49.426;2022-07-06T05:00:18;35.84;21.69
67192;HTU21D;54120;53.504;49.426;2022-07-06T05:02:44;36.09;20.91
67192;HTU21D;54120;53.504;49.426;2022-07-06T05:05:11;35.83;21.44
67192;HTU21D;54120;53.504;49.426;2022-07-06T05:07:37;35.05;21.81
67192;HTU21D;54120;53.504;49.426;2022-07-06T05:10:09;35.08;21.76
67192;HTU21D;54120;53.504;49.426;2022-07-06T05:12:36;36.21;21.21
67192;HTU21D;54120;53.504;49.426;2022-07-06T05:15:04;36.08;20.66
67192;HTU21D;54120;53.504;49.426;2022-07-06T05:17:30;36.02;20.54
67192;HTU21D;54120;53.504;49.426;2022-07-06T05:19:56;34.75;23.01
67192;HTU21D;54120;53.504;49.426;2022-07-06T05:22:23;35.16;22.28
67192;HTU21D;54120;53.504;49.426;2022-07-06T05:24:50;36.16;20.68
67192;HTU21D;54120;53.504;49.426;2022-07-06T05:27:17;36.54;19.62
67192;HTU21D;54120;53.504;49.426;2022-07-06T05:29:43;36.77;19.49
67192;HTU21D;54120;53.504;49.426;2022-07-06T05:32:09;37.20;18.72
67192;HTU21D;54120;53.504;49.426;2022-07-06T05:34:35;37.26;17.71
67192;HTU21D;54120;53.504;49.426;2022-07-06T05:37:03;34.46;21.47
67192;HTU21D;54120;53.504;49.426;2022-07-06T05:39:29;35.59;20.73
67192;HTU21D;54120;53.504;49.426;2022-07-06T05:41:56;36.23;19.36
67192;HTU21D;54120;53.504;49.426;2022-07-06T05:44:22;36.38;19.26
67192;HTU21D;54120;53.504;49.426;2022-07-06T05:46:48;35.93;18.71
67192;HTU21D;54120;53.504;49.426;2022-07-06T05:49:14;35.30;19.42
67192;HTU21D;54120;53.504;49.426;2022-07-06T05:51:58;36.43;18.54
67192;HTU21D;54120;53.504;49.426;2022-07-06T05:54:25;36.66;18.95
67192;HTU21D;54120;53.504;49.426;2022-07-06T05:56:51;35.36;20.05
67192;HTU21D;54120;53.504;49.426;2022-07-06T05:59:17;34.10;21.53
67192;HTU21D;54120;53.504;49.426;2022-07-06T06:01:43;34.16;21.05
67192;HTU21D;54120;53.504;49.426;2022-07-06T06:04:09;33.76;22.02
67192;HTU21D;54120;53.504;49.426;2022-07-06T06:06:35;34.81;19.59
67192;HTU21D;54120;53.504;49.426;2022-07-06T06:09:01;34.88;19.71
67192;HTU21D;54120;53.504;49.426;2022-07-06T06:11:28;35.71;18.65
67192;HTU21D;54120;53.504;49.426;2022-07-06T06:13:54;34.96;19.31
67192;HTU21D;54120;53.504;49.426;2022-07-06T06:16:20;35.55;18.71
67192;HTU21D;54120;53.504;49.426;2022-07-06T06:18:46;34.67;19.29
67192;HTU21D;54120;53.504;49.426;2022-07-06T06:21:12;33.28;22.07
67192;HTU21D;54120;53.504;49.426;2022-07-06T06:23:38;33.53;21.12
67192;HTU21D;54120;53.504;49.426;2022-07-06T06:26:04;33.93;21.30
67192;HTU21D;54120;53.504;49.426;2022-07-06T06:28:31;35.05;18.96
67192;HTU21D;54120;53.504;49.426;2022-07-06T06:30:57;34.03;20.34
67192;HTU21D;54120;53.504;49.426;2022-07-06T06:33:23;34.82;19.43
67192;HTU21D;54120;53.504;49.426;2022-07-06T06:35:53;34.40;19.37
67192;HTU21D;54120;53.504;49.426;2022-07-06T06:38:22;35.24;18.25
67192;HTU21D;54120;53.504;49.426;2022-07-06T06:40:51;34.56;19.33
67192;HTU21D;54120;53.504;49.426;2022-07-06T06:43:18;34.46;18.56
67192;HTU21D;54120;53.504;49.426;2022-07-06T06:45:44;34.07;18.92
67192;HTU21D;54120;53.504;49.426;2022-07-06T06:48:12;34.09;19.01
67192;HTU21D;54120;53.504;49.426;2022-07-06T06:50:38;33.89;18.80
67192;HTU21D;54120;53.504;49.426;2022-07-06T06:53:04;32.97;21.19
67192;HTU21D;54120;53.504;49.426;2022-07-06T06:55:30;34.78;17.64
67192;HTU21D;54120;53.504;49.426;2022-07-06T06:57:56;34.79;18.59
67192;HTU21D;54120;53.504;49.426;2022-07-06T07:00:23;35.11;17.60
67192;HTU21D;54120;53.504;49.426;2022-07-06T07:02:49;34.88;18.22
67192;HTU21D;54120;53.504;49.426;2022-07-06T07:05:15;34.96;17.56
67192;HTU21D;54120;53.504;49.426;2022-07-06T07:07:41;35.23;17.03
67192;HTU21D;54120;53.504;49.426;2022-07-06T07:10:09;34.83;17.99
67192;HTU21D;54120;53.504;49.426;2022-07-06T07:12:46;35.79;17.33
67192;HTU21D;54120;53.504;49.426;2022-07-06T07:15:12;35.19;16.81
67192;HTU21D;54120;53.504;49.426;2022-07-06T07:17:39;35.28;16.77
67192;HTU21D;54120;53.504;49.426;2022-07-06T07:20:06;34.50;18.67
67192;HTU21D;54120;53.504;49.426;2022-07-06T07:22:33;35.12;17.88
67192;HTU21D;54120;53.504;49.426;2022-07-06T07:24:59;33.66;19.56
67192;HTU21D;54120;53.504;49.426;2022-07-06T07:27:25;34.79;18.70
67192;HTU21D;54120;53.504;49.426;2022-07-06T07:29:52;34.40;18.35
67192;HTU21D;54120;53.504;49.426;2022-07-06T07:32:19;33.40;19.78
67192;HTU21D;54120;53.504;49.426;2022-07-06T07:34:45;33.02;20.33
67192;HTU21D;54120;53.504;49.426;2022-07-06T07:37:12;32.66;21.13
67192;HTU21D;54120;53.504;49.426;2022-07-06T07:39:38;33.46;20.34
67192;HTU21D;54120;53.504;49.426;2022-07-06T07:42:04;33.40;19.90
67192;HTU21D;54120;53.504;49.426;2022-07-06T07:44:30;32.14;21.43
67192;HTU21D;54120;53.504;49.426;2022-07-06T07:46:57;32.17;22.41
67192;HTU21D;54120;53.504;49.426;2022-07-06T07:49:23;31.78;22.31
67192;HTU21D;54120;53.504;49.426;2022-07-06T07:51:49;31.21;24.06
67192;HTU21D;54120;53.504;49.426;2022-07-06T07:54:16;31.42;23.14
67192;HTU21D;54120;53.504;49.426;2022-07-06T07:56:42;31.30;24.69
67192;HTU21D;54120;53.504;49.426;2022-07-06T07:59:09;30.78;23.72
67192;HTU21D;54120;53.504;49.426;2022-07-06T08:01:35;29.09;26.92
67192;HTU21D;54120;53.504;49.426;2022-07-06T08:04:02;27.69;30.94
67192;HTU21D;54120;53.504;49.426;2022-07-06T08:06:28;26.92;32.17
67192;HTU21D;54120;53.504;49.426;2022-07-06T08:08:54;26.51;31.27
67192;HTU21D;54120;53.504;49.426;2022-07-06T08:11:20;25.61;34.31
67192;HTU21D;54120;53.504;49.426;2022-07-06T08:13:47;25.23;34.57
67192;HTU21D;54120;53.504;49.426;2022-07-06T08:16:13;25.23;35.35
67192;HTU21D;54120;53.504;49.426;2022-07-06T08:18:39;25.30;34.82
67192;HTU21D;54120;53.504;49.426;2022-07-06T08:21:07;25.46;34.80
67192;HTU21D;54120;53.504;49.426;2022-07-06T08:23:33;25.71;33.52
67192;HTU21D;54120;53.504;49.426;2022-07-06T08:26:02;25.58;33.27
67192;HTU21D;54120;53.504;49.426;2022-07-06T08:28:29;25.40;34.89
67192;HTU21D;54120;53.504;49.426;2022-07-06T08:30:56;25.65;36.00
67192;HTU21D;54120;53.504;49.426;2022-07-06T08:33:22;25.90;34.02
67192;HTU21D;54120;53.504;49.426;2022-07-06T08:35:48;25.79;34.66
67192;HTU21D;54120;53.504;49.426;2022-07-06T08:38:14;25.96;35.16
67192;HTU21D;54120;53.504;49.426;2022-07-06T08:40:41;26.07;34.57
67192;HTU21D;54120;53.504;49.426;2022-07-06T08:43:08;25.81;36.75
67192;HTU21D;54120;53.504;49.426;2022-07-06T08:45:34;25.87;34.05
67192;HTU21D;54120;53.504;49.426;2022-07-06T08:48:05;25.25;36.43
67192;HTU21D;54120;53.504;49.426;2022-07-06T08:50:35;25.15;35.89
67192;HTU21D;54120;53.504;49.426;2022-07-06T08:53:01;25.15;35.76
67192;HTU21D;54120;53.504;49.426;2022-07-06T08:55:31;25.19;37.42
67192;HTU21D;54120;53.504;49.426;2022-07-06T08:57:58;25.10;37.30
67192;HTU21D;54120;53.504;49.426;2022-07-06T09:00:25;25.36;37.02
67192;HTU21D;54120;53.504;49.426;2022-07-06T09:02:51;25.47;36.00
67192;HTU21D;54120;53.504;49.426;2022-07-06T09:05:22;25.50;35.70
67192;HTU21D;54120;53.504;49.426;2022-07-06T09:07:50;25.54;35.00
67192;HTU21D;54120;53.504;49.426;2022-07-06T09:10:21;25.34;35.73
67192;HTU21D;54120;53.504;49.426;2022-07-06T09:12:50;25.45;36.14
67192;HTU21D;54120;53.504;49.426;2022-07-06T09:15:16;25.69;36.19
67192;HTU21D;54120;53.504;49.426;2022-07-06T09:17:43;25.82;35.45
67192;HTU21D;54120;53.504;49.426;2022-07-06T09:20:11;25.44;36.65
67192;HTU21D;54120;53.504;49.426;2022-07-06T09:22:38;25.64;36.22
67192;HTU21D;54120;53.504;49.426;2022-07-06T09:25:10;25.77;36.24
67192;HTU21D;54120;53.504;49.426;2022-07-06T09:27:46;25.80;35.59
67192;HTU21D;54120;53.504;49.426;2022-07-06T09:30:22;25.57;37.03
67192;HTU21D;54120;53.504;49.426;2022-07-06T09:32:54;25.71;37.85
67192;HTU21D;54120;53.504;49.426;2022-07-06T09:35:35;25.90;35.74
67192;HTU21D;54120;53.504;49.426;2022-07-06T09:38:10;25.98;36.14
67192;HTU21D;54120;53.504;49.426;2022-07-06T09:40:42;25.77;35.82
67192;HTU21D;54120;53.504;49.426;2022-07-06T09:43:19;25.59;36.79
67192;HTU21D;54120;53.504;49.426;2022-07-06T09:45:48;25.71;35.75
67192;HTU21D;54120;53.504;49.426;2022-07-06T09:48:19;25.80;36.24
67192;HTU21D;54120;53.504;49.426;2022-07-06T09:50:51;25.72;36.63
67192;HTU21D;54120;53.504;49.426;2022-07-06T09:53:19;25.74;37.03
67192;HTU21D;54120;53.504;49.426;2022-07-06T09:55:48;25.98;36.05
67192;HTU21D;54120;53.504;49.426;2022-07-06T09:58:15;26.13;36.01
67192;HTU21D;54120;53.504;49.426;2022-07-06T10:00:42;26.03;35.33
67192;HTU21D;54120;53.504;49.426;2022-07-06T10:03:09;25.72;36.11
67192;HTU21D;54120;53.504;49.426;2022-07-06T10:05:37;25.91;36.24
67192;HTU21D;54120;53.504;49.426;2022-07-06T10:08:05;25.86;36.17
67192;HTU21D;54120;53.504;49.426;2022-07-06T10:10:32;25.87;36.33
67192;HTU21D;54120;53.504;49.426;2022-07-06T10:12:59;25.84;36.02
67192;HTU21D;54120;53.504;49.426;2022-07-06T10:15:27;25.74;36.70
67192;HTU21D;54120;53.504;49.426;2022-07-06T10:17:55;25.86;36.92
67192;HTU21D;54120;53.504;49.426;2022-07-06T10:20:22;26.07;36.83
67192;HTU21D;54120;53.504;49.426;2022-07-06T10:22:49;26.12;33.20
67192;HTU21D;54120;53.504;49.426;2022-07-06T10:25:17;26.21;34.78
67192;HTU21D;54120;53.504;49.426;2022-07-06T10:27:45;25.96;35.85
67192;HTU21D;54120;53.504;49.426;2022-07-06T10:30:11;26.03;35.89
67192;HTU21D;54120;53.504;49.426;2022-07-06T10:32:39;26.31;35.80
67192;HTU21D;54120;53.504;49.426;2022-07-06T10:35:07;26.22;35.76
67192;HTU21D;54120;53.504;49.426;2022-07-06T10:37:33;26.24;36.80
67192;HTU21D;54120;53.504;49.426;2022-07-06T10:40:00;26.28;35.47
67192;HTU21D;54120;53.504;49.426;2022-07-06T10:42:46;26.11;36.51
67192;HTU21D;54120;53.504;49.426;2022-07-06T10:50:41;26.30;36.72
67192;HTU21D;54120;53.504;49.426;2022-07-06T10:53:20;26.17;36.26
67192;HTU21D;54120;53.504;49.426;2022-07-06T10:55:48;25.73;37.55
67192;HTU21D;54120;53.504;49.426;2022-07-06T11:01:00;26.21;35.79
67192;HTU21D;54120;53.504;49.426;2022-07-06T11:03:48;25.92;37.21
67192;HTU21D;54120;53.504;49.426;2022-07-06T11:06:17;25.72;36.73
67192;HTU21D;54120;53.504;49.426;2022-07-06T11:08:51;25.61;36.88
67192;HTU21D;54120;53.504;49.426;2022-07-06T11:16:14;25.73;37.58
67192;HTU21D;54120;53.504;49.426;2022-07-06T11:18:46;25.88;37.04
67192;HTU21D;54120;53.504;49.426;2022-07-06T11:21:21;25.84;35.73
67192;HTU21D;54120;53.504;49.426;2022-07-06T11:23:49;25.74;36.86
67192;HTU21D;54120;53.504;49.426;2022-07-06T11:26:16;25.99;35.69
67192;HTU21D;54120;53.504;49.426;2022-07-06T11:28:46;26.03;35.34
67192;HTU21D;54120;53.504;49.426;2022-07-06T11:31:14;25.90;36.11
67192;HTU21D;54120;53.504;49.426;2022-07-06T11:33:40;25.80;36.31
67192;HTU21D;54120;53.504;49.426;2022-07-06T11:36:15;25.67;36.52
67192;HTU21D;54120;53.504;49.426;2022-07-06T11:38:42;25.60;36.79
67192;HTU21D;54120;53.504;49.426;2022-07-06T11:41:09;25.63;35.95
67192;HTU21D;54120;53.504;49.426;2022-07-06T11:43:35;25.75;36.18
67192;HTU21D;54120;53.504;49.426;2022-07-06T11:46:03;25.83;35.31
67192;HTU21D;54120;53.504;49.426;2022-07-06T11:48:29;25.96;35.22
67192;HTU21D;54120;53.504;49.426;2022-07-06T11:51:03;25.91;35.34
67192;HTU21D;54120;53.504;49.426;2022-07-06T11:53:29;25.86;35.56
67192;HTU21D;54120;53.504;49.426;2022-07-06T11:56:02;25.56;35.45
67192;HTU21D;54120;53.504;49.426;2022-07-06T11:58:30;25.52;36.86
67192;HTU21D;54120;53.504;49.426;2022-07-06T12:01:04;25.66;36.42
67192;HTU21D;54120;53.504;49.426;2022-07-06T12:03:31;25.52;37.06
67192;HTU21D;54120;53.504;49.426;2022-07-06T12:05:58;25.75;37.38
67192;HTU21D;54120;53.504;49.426;2022-07-06T12:08:25;25.99;36.87
67192;HTU21D;54120;53.504;49.426;2022-07-06T12:10:51;25.89;36.13
67192;HTU21D;54120;53.504;49.426;2022-07-06T12:13:18;25.97;35.30
67192;HTU21D;54120;53.504;49.426;2022-07-06T12:15:44;25.90;35.64
67192;HTU21D;54120;53.504;49.426;2022-07-06T12:18:11;25.73;36.19
67192;HTU21D;54120;53.504;49.426;2022-07-06T12:20:37;25.75;36.30
67192;HTU21D;54120;53.504;49.426;2022-07-06T12:23:04;25.93;37.14
67192;HTU21D;54120;53.504;49.426;2022-07-06T12:25:35;26.16;37.32
67192;HTU21D;54120;53.504;49.426;2022-07-06T12:28:02;26.08;37.85
67192;HTU21D;54120;53.504;49.426;2022-07-06T12:30:29;25.91;38.69
67192;HTU21D;54120;53.504;49.426;2022-07-06T12:33:15;25.86;38.00
67192;HTU21D;54120;53.504;49.426;2022-07-06T12:35:42;25.87;38.21
67192;HTU21D;54120;53.504;49.426;2022-07-06T12:38:09;26.11;38.28
67192;HTU21D;54120;53.504;49.426;2022-07-06T12:40:36;26.15;37.50
67192;HTU21D;54120;53.504;49.426;2022-07-06T12:43:03;25.90;38.14
67192;HTU21D;54120;53.504;49.426;2022-07-06T12:45:30;25.90;36.70
67192;HTU21D;54120;53.504;49.426;2022-07-06T12:48:04;25.87;38.26
67192;HTU21D;54120;53.504;49.426;2022-07-06T12:50:33;25.96;37.65
67192;HTU21D;54120;53.504;49.426;2022-07-06T12:53:00;26.08;37.29
67192;HTU21D;54120;53.504;49.426;2022-07-06T12:55:27;26.02;37.56
67192;HTU21D;54120;53.504;49.426;2022-07-06T12:57:55;25.98;37.94
67192;HTU21D;54120;53.504;49.426;2022-07-06T13:00:21;25.68;38.53
67192;HTU21D;54120;53.504;49.426;2022-07-06T13:02:53;25.67;38.36
67192;HTU21D;54120;53.504;49.426;2022-07-06T13:05:26;25.84;38.33
67192;HTU21D;54120;53.504;49.426;2022-07-06T13:07:54;25.84;37.67
67192;HTU21D;54120;53.504;49.426;2022-07-06T13:10:21;25.87;37.43
67192;HTU21D;54120;53.504;49.426;2022-07-06T13:12:49;25.86;37.47
67192;HTU21D;54120;53.504;49.426;2022-07-06T13:15:15;25.95;37.66
67192;HTU21D;54120;53.504;49.426;2022-07-06T13:17:42;26.05;37.94
67192;HTU21D;54120;53.504;49.426;2022-07-06T13:20:11;26.23;37.97
67192;HTU21D;54120;53.504;49.426;2022-07-06T13:22:38;26.19;37.13
67192;HTU21D;54120;53.504;49.426;2022-07-06T13:25:05;26.19;37.74
67192;HTU21D;54120;53.504;49.426;2022-07-06T13:27:32;26.20;37.51
67192;HTU21D;54120;53.504;49.426;2022-07-06T13:29:58;26.30;37.85
67192;HTU21D;54120;53.504;49.426;2022-07-06T13:32:24;26.45;36.27
67192;HTU21D;54120;53.504;49.426;2022-07-06T13:34:50;26.31;36.24
67192;HTU21D;54120;53.504;49.426;2022-07-06T13:37:19;26.26;36.63
67192;HTU21D;54120;53.504;49.426;2022-07-06T13:39:45;26.18;37.32
67192;HTU21D;54120;53.504;49.426;2022-07-06T13:42:12;26.16;37.98
67192;HTU21D;54120;53.504;49.426;2022-07-06T13:44:38;26.20;36.92
67192;HTU21D;54120;53.504;49.426;2022-07-06T13:47:04;26.10;36.24
67192;HTU21D;54120;53.504;49.426;2022-07-06T13:49:30;26.05;36.40
67192;HTU21D;54120;53.504;49.426;2022-07-06T13:51:56;26.05;37.20
67192;HTU21D;54120;53.504;49.426;2022-07-06T13:54:29;26.06;35.69
67192;HTU21D;54120;53.504;49.426;2022-07-06T13:56:56;26.10;35.89
67192;HTU21D;54120;53.504;49.426;2022-07-06T13:59:22;26.09;36.64
67192;HTU21D;54120;53.504;49.426;2022-07-06T14:01:48;26.05;37.24
67192;HTU21D;54120;53.504;49.426;2022-07-06T14:04:15;26.15;36.16
67192;HTU21D;54120;53.504;49.426;2022-07-06T14:06:41;26.08;37.15
67192;HTU21D;54120;53.504;49.426;2022-07-06T14:09:07;26.05;36.83
67192;HTU21D;54120;53.504;49.426;2022-07-06T14:11:33;26.03;36.46
67192;HTU21D;54120;53.504;49.426;2022-07-06T14:13:59;25.95;37.33
67192;HTU21D;54120;53.504;49.426;2022-07-06T14:16:26;25.96;36.79
67192;HTU21D;54120;53.504;49.426;2022-07-06T14:18:52;25.95;37.19
67192;HTU21D;54120;53.504;49.426;2022-07-06T14:21:18;25.88;37.21
67192;HTU21D;54120;53.504;49.426;2022-07-06T14:23:44;25.91;37.11
67192;HTU21D;54120;53.504;49.426;2022-07-06T14:26:11;25.76;36.72
67192;HTU21D;54120;53.504;49.426;2022-07-06T14:28:37;25.89;37.15
67192;HTU21D;54120;53.504;49.426;2022-07-06T14:31:03;25.86;37.37
67192;HTU21D;54120;53.504;49.426;2022-07-06T14:33:29;25.83;37.06
67192;HTU21D;54120;53.504;49.426;2022-07-06T14:35:55;25.74;37.81
67192;HTU21D;54120;53.504;49.426;2022-07-06T14:38:22;25.73;37.78
67192;HTU21D;54120;53.504;49.426;2022-07-06T14:40:49;25.69;37.05
67192;HTU21D;54120;53.504;49.426;2022-07-06T14:43:16;25.62;37.40
67192;HTU21D;54120;53.504;49.426;2022-07-06T14:45:44;25.54;37.45
67192;HTU21D;54120;53.504;49.426;2022-07-06T14:48:11;25.53;37.86
67192;HTU21D;54120;53.504;49.426;2022-07-06T14:50:37;25.50;37.51
67192;HTU21D;54120;53.504;49.426;2022-07-06T14:53:03;25.47;38.19
67192;HTU21D;54120;53.504;49.426;2022-07-06T14:55:30;25.47;37.58
67192;HTU21D;54120;53.504;49.426;2022-07-06T14:57:56;25.48;37.22
67192;HTU21D;54120;53.504;49.426;2022-07-06T15:00:23;25.46;36.95
67192;HTU21D;54120;53.504;49.426;2022-07-06T15:02:49;25.44;37.70
67192;HTU21D;54120;53.504;49.426;2022-07-06T15:05:15;25.24;38.45
67192;HTU21D;54120;53.504;49.426;2022-07-06T15:07:41;25.05;39.14
67192;HTU21D;54120;53.504;49.426;2022-07-06T15:10:08;25.03;38.80
67192;HTU21D;54120;53.504;49.426;2022-07-06T15:12:34;25.12;37.92
67192;HTU21D;54120;53.504;49.426;2022-07-06T15:15:01;25.09;38.24
67192;HTU21D;54120;53.504;49.426;2022-07-06T15:17:29;25.08;38.32